Time;durP1;ratioP1;P1;durP2;ratioP2;P2;SDS_P1;SDS_P2;PMS_P1;PMS_P2;Temp;Humidity;BMP_temperature;BMP_pressure;BME280_temperature;BME280_humidity;BME280_pressure;Samples;Min_cycle;Max_cycle;Signal;HPM_P1;HPM_P2
2023/11/15 00:00:37;;;;;;;;;;;11.70;99.90;;;;;;4907713;29;19950;-85
2023/11/15 00:03:03;;;;;;;;;;;11.70;99.90;;;;;;4928594;29;19963;-85
2023/11/15 00:05:28;;;;;;;;;;;11.70;99.90;;;;;;4906246;29;19915;-85
2023/11/15 00:07:55;;;;;;;;;;;11.80;99.90;;;;;;4910760;29;19919;-85
2023/11/15 00:10:24;;;;;;;;;;;11.70;99.90;;;;;;4905284;29;20290;-85
2023/11/15 00:12:49;;;;;;;;;;;11.80;99.90;;;;;;4924451;29;20064;-85
2023/11/15 00:15:15;;;;;;;;;;;11.80;99.90;;;;;;4911229;29;19915;-85
2023/11/15 00:17:41;;;;;;;;;;;11.80;99.90;;;;;;4908641;29;20517;-85
2023/11/15 00:20:08;;;;;;;;;;;11.80;99.90;;;;;;4907387;29;19918;-85
2023/11/15 00:22:33;;;;;;;;;;;11.80;99.90;;;;;;4906887;29;19919;-85
2023/11/15 00:24:59;;;;;;;;;;;11.80;99.90;;;;;;4908619;29;20358;-86
2023/11/15 00:27:26;;;;;;;;;;;11.70;99.90;;;;;;4908527;29;19954;-86
2023/11/15 00:29:52;;;;;;;;;;;11.70;99.90;;;;;;4908026;29;19911;-85
2023/11/15 00:32:19;;;;;;;;;;;11.70;99.90;;;;;;4909752;29;19921;-85
2023/11/15 00:34:45;;;;;;;;;;;11.70;99.90;;;;;;4908792;29;19961;-85
2023/11/15 00:37:10;;;;;;;;;;;11.70;99.90;;;;;;4908438;29;20342;-85
2023/11/15 00:39:36;;;;;;;;;;;11.70;99.90;;;;;;4924563;29;19911;-85
2023/11/15 00:42:03;;;;;;;;;;;11.80;99.90;;;;;;4905806;29;20524;-85
2023/11/15 00:44:29;;;;;;;;;;;11.70;99.90;;;;;;4905673;29;20263;-84
2023/11/15 00:46:55;;;;;;;;;;;11.80;99.90;;;;;;4923784;29;20006;-85
2023/11/15 00:49:21;;;;;;;;;;;11.80;99.90;;;;;;4910198;29;19990;-85
2023/11/15 00:51:47;;;;;;;;;;;11.80;99.90;;;;;;4902111;29;19963;-84
2023/11/15 00:54:14;;;;;;;;;;;11.80;99.90;;;;;;4925036;29;19939;-85
2023/11/15 00:56:40;;;;;;;;;;;11.80;99.90;;;;;;4909569;29;19917;-84
2023/11/15 00:59:05;;;;;;;;;;;11.80;99.90;;;;;;4907835;29;19916;-84
2023/11/15 01:01:31;;;;;;;;;;;11.80;99.90;;;;;;4911736;29;19910;-84
2023/11/15 01:03:58;;;;;;;;;;;11.90;99.90;;;;;;4910485;29;19933;-84
2023/11/15 01:06:26;;;;;;;;;;;11.90;99.90;;;;;;4925099;29;19930;-84
2023/11/15 01:08:53;;;;;;;;;;;11.90;99.90;;;;;;4909959;29;19911;-84
2023/11/15 01:11:18;;;;;;;;;;;11.80;99.90;;;;;;4905049;29;19950;-83
2023/11/15 01:13:47;;;;;;;;;;;11.80;99.90;;;;;;4904173;29;19950;-84
2023/11/15 01:16:13;;;;;;;;;;;11.80;99.90;;;;;;4909990;29;19942;-84
2023/11/15 01:18:39;;;;;;;;;;;11.80;99.90;;;;;;4910273;29;19950;-84
2023/11/15 01:21:05;;;;;;;;;;;11.80;99.90;;;;;;4911448;29;19919;-85
2023/11/15 01:23:31;;;;;;;;;;;11.80;99.90;;;;;;4913471;29;19918;-86
2023/11/15 01:25:56;;;;;;;;;;;11.80;99.90;;;;;;4912512;29;20477;-85
2023/11/15 01:28:22;;;;;;;;;;;11.80;99.90;;;;;;4910964;29;19912;-85
2023/11/15 01:30:47;;;;;;;;;;;11.80;99.90;;;;;;4910462;29;20006;-85
2023/11/15 01:33:14;;;;;;;;;;;11.70;99.90;;;;;;4913890;29;19915;-85
2023/11/15 01:35:39;;;;;;;;;;;11.70;99.90;;;;;;4914549;29;19917;-84
2023/11/15 01:38:05;;;;;;;;;;;11.60;99.90;;;;;;4912353;29;19931;-85
2023/11/15 01:40:34;;;;;;;;;;;11.60;99.90;;;;;;4912543;29;19922;-85
2023/11/15 01:42:59;;;;;;;;;;;11.60;99.90;;;;;;4913614;29;19974;-84
2023/11/15 01:45:25;;;;;;;;;;;11.60;99.90;;;;;;4911315;29;20521;-85
2023/11/15 01:47:51;;;;;;;;;;;11.60;99.90;;;;;;4913381;29;20394;-84
2023/11/15 01:50:17;;;;;;;;;;;11.60;99.90;;;;;;4900648;29;19911;-85
2023/11/15 01:52:44;;;;;;;;;;;11.60;99.90;;;;;;4907324;29;20457;-85
2023/11/15 01:55:12;;;;;;;;;;;11.60;99.90;;;;;;4913276;29;20470;-84
2023/11/15 01:57:38;;;;;;;;;;;11.60;99.90;;;;;;4910620;29;20248;-84
2023/11/15 02:00:06;;;;;;;;;;;11.60;99.90;;;;;;4911695;29;19958;-85
2023/11/15 02:02:32;;;;;;;;;;;11.50;99.90;;;;;;4911543;29;20290;-84
2023/11/15 02:04:57;;;;;;;;;;;11.50;99.90;;;;;;4918692;29;19919;-83
2023/11/15 02:07:23;;;;;;;;;;;11.50;99.90;;;;;;4912378;29;19918;-83
2023/11/15 02:09:48;;;;;;;;;;;11.40;99.90;;;;;;4911734;29;19954;-84
2023/11/15 02:12:14;;;;;;;;;;;11.40;99.90;;;;;;4927098;29;20304;-84
2023/11/15 02:14:39;;;;;;;;;;;11.40;99.90;;;;;;4912400;29;19961;-84
2023/11/15 02:17:05;;;;;;;;;;;11.30;99.90;;;;;;4905497;29;20044;-84
2023/11/15 02:19:30;;;;;;;;;;;11.30;99.90;;;;;;4912869;29;20271;-84
2023/11/15 02:21:56;;;;;;;;;;;11.30;99.90;;;;;;4911157;29;19918;-85
2023/11/15 02:24:22;;;;;;;;;;;11.30;99.90;;;;;;4899262;29;20355;-85
2023/11/15 02:26:47;;;;;;;;;;;11.30;99.90;;;;;;4912953;29;19919;-84
2023/11/15 02:29:13;;;;;;;;;;;11.30;99.90;;;;;;4910149;29;19911;-87
2023/11/15 02:31:38;;;;;;;;;;;11.30;99.90;;;;;;4915325;29;19918;-87
2023/11/15 02:34:04;;;;;;;;;;;11.30;99.90;;;;;;4928228;29;19930;-86
2023/11/15 02:36:29;;;;;;;;;;;11.30;99.90;;;;;;4931340;29;19911;-86
2023/11/15 02:38:55;;;;;;;;;;;11.30;99.90;;;;;;4918285;29;20443;-86
2023/11/15 02:41:20;;;;;;;;;;;11.40;99.90;;;;;;4912851;29;19918;-86
2023/11/15 02:43:46;;;;;;;;;;;11.40;99.90;;;;;;4920721;29;20094;-86
2023/11/15 02:46:17;;;;;;;;;;;11.40;99.90;;;;;;4908171;29;19919;-86
2023/11/15 02:48:42;;;;;;;;;;;11.40;99.90;;;;;;4908111;29;19915;-85
2023/11/15 02:51:08;;;;;;;;;;;11.40;99.90;;;;;;4913185;29;20535;-87
2023/11/15 02:53:33;;;;;;;;;;;11.40;99.90;;;;;;4929195;29;19918;-86
2023/11/15 02:55:59;;;;;;;;;;;11.50;99.90;;;;;;4914566;29;20479;-83
2023/11/15 02:58:24;;;;;;;;;;;11.50;99.90;;;;;;4916009;29;19922;-84
2023/11/15 03:00:50;;;;;;;;;;;11.60;99.90;;;;;;4929033;29;19930;-85
2023/11/15 03:03:16;;;;;;;;;;;11.50;99.90;;;;;;4911560;29;19970;-85
2023/11/15 03:05:41;;;;;;;;;;;11.60;99.90;;;;;;4911170;29;19970;-84
2023/11/15 03:08:07;;;;;;;;;;;11.60;99.90;;;;;;4926839;29;19915;-84
2023/11/15 03:10:33;;;;;;;;;;;11.60;99.90;;;;;;4912021;29;19950;-85
2023/11/15 03:13:00;;;;;;;;;;;11.60;99.90;;;;;;4907077;29;19915;-85
2023/11/15 03:15:25;;;;;;;;;;;11.50;99.90;;;;;;4909702;29;19919;-84
2023/11/15 03:17:51;;;;;;;;;;;11.60;99.90;;;;;;4899722;29;19919;-84
2023/11/15 03:20:16;;;;;;;;;;;11.60;99.90;;;;;;4911359;29;19930;-85
2023/11/15 03:22:41;;;;;;;;;;;11.50;99.90;;;;;;4909711;29;20386;-86
2023/11/15 03:25:07;;;;;;;;;;;11.50;99.90;;;;;;4911804;29;20378;-85
2023/11/15 03:27:33;;;;;;;;;;;11.50;99.90;;;;;;4911653;29;19925;-86
2023/11/15 03:29:59;;;;;;;;;;;11.50;99.90;;;;;;4906013;29;20366;-85
2023/11/15 03:32:25;;;;;;;;;;;11.50;99.90;;;;;;4911840;29;19911;-86
2023/11/15 03:34:50;;;;;;;;;;;11.50;99.90;;;;;;4901249;29;19918;-86
2023/11/15 03:37:16;;;;;;;;;;;11.50;99.90;;;;;;4910954;29;20370;-86
2023/11/15 03:39:41;;;;;;;;;;;11.50;99.90;;;;;;4906732;29;20010;-86
2023/11/15 03:42:07;;;;;;;;;;;11.50;99.90;;;;;;4905475;29;20424;-87
2023/11/15 03:44:32;;;;;;;;;;;11.60;99.90;;;;;;4912604;29;19911;-86
2023/11/15 03:46:58;;;;;;;;;;;11.60;99.90;;;;;;4912210;29;19970;-86
2023/11/15 03:49:23;;;;;;;;;;;11.60;99.90;;;;;;4910689;29;19922;-86
2023/11/15 03:51:49;;;;;;;;;;;11.60;99.90;;;;;;4908969;29;19910;-84
2023/11/15 03:54:14;;;;;;;;;;;11.60;99.90;;;;;;4910724;29;19915;-85
2023/11/15 03:56:40;;;;;;;;;;;11.70;99.90;;;;;;4908436;29;20398;-85
2023/11/15 03:59:05;;;;;;;;;;;11.70;99.90;;;;;;4909917;29;19922;-86
2023/11/15 04:01:31;;;;;;;;;;;11.70;99.90;;;;;;4906707;29;19915;-86
2023/11/15 04:03:57;;;;;;;;;;;11.70;99.90;;;;;;4909693;29;20591;-86
2023/11/15 04:06:22;;;;;;;;;;;11.70;99.90;;;;;;4910491;29;19982;-85
2023/11/15 04:08:48;;;;;;;;;;;11.70;99.90;;;;;;4909523;29;20058;-85
2023/11/15 04:11:14;;;;;;;;;;;11.70;99.90;;;;;;4907508;29;19915;-85
2023/11/15 04:13:39;;;;;;;;;;;11.70;99.90;;;;;;4906400;29;19917;-84
2023/11/15 04:16:05;;;;;;;;;;;11.70;99.90;;;;;;4909275;29;20518;-84
2023/11/15 04:18:31;;;;;;;;;;;11.70;99.90;;;;;;4908297;29;20070;-84
2023/11/15 04:20:57;;;;;;;;;;;11.70;99.90;;;;;;4905959;29;20297;-84
2023/11/15 04:23:23;;;;;;;;;;;11.70;99.90;;;;;;4909984;29;19915;-85
2023/11/15 04:25:50;;;;;;;;;;;11.70;99.90;;;;;;4911778;29;20009;-84
2023/11/15 04:28:15;;;;;;;;;;;11.70;99.90;;;;;;4906898;29;19926;-85
2023/11/15 04:30:41;;;;;;;;;;;11.70;99.90;;;;;;4910593;29;19915;-84
2023/11/15 04:33:07;;;;;;;;;;;11.70;99.90;;;;;;4907500;29;19919;-84
2023/11/15 04:35:32;;;;;;;;;;;11.70;99.90;;;;;;4909384;29;19911;-84
2023/11/15 04:37:58;;;;;;;;;;;11.70;99.90;;;;;;4910250;29;20017;-85
2023/11/15 04:40:23;;;;;;;;;;;11.70;99.90;;;;;;4911805;29;19911;-87
2023/11/15 04:42:49;;;;;;;;;;;11.80;99.90;;;;;;4909987;29;20375;-85
2023/11/15 04:45:14;;;;;;;;;;;11.70;99.90;;;;;;4918663;29;19911;-86
2023/11/15 04:47:40;;;;;;;;;;;11.80;99.90;;;;;;4910800;29;19927;-85
2023/11/15 04:50:05;;;;;;;;;;;11.80;99.90;;;;;;4912423;29;20001;-86
2023/11/15 04:52:31;;;;;;;;;;;11.80;99.90;;;;;;4908932;29;19930;-84
2023/11/15 04:54:56;;;;;;;;;;;11.80;99.90;;;;;;4914234;29;19919;-84
2023/11/15 04:57:25;;;;;;;;;;;11.80;99.90;;;;;;4917713;29;19953;-86
2023/11/15 04:59:51;;;;;;;;;;;11.80;99.90;;;;;;4909357;29;19915;-85
2023/11/15 05:02:17;;;;;;;;;;;11.80;99.90;;;;;;4908468;29;20401;-85
2023/11/15 05:04:43;;;;;;;;;;;11.80;99.90;;;;;;4915837;29;19918;-85
2023/11/15 05:07:08;;;;;;;;;;;11.80;99.90;;;;;;4910793;29;19962;-84
2023/11/15 05:09:34;;;;;;;;;;;11.80;99.90;;;;;;4914534;29;19918;-85
2023/11/15 05:12:00;;;;;;;;;;;11.70;99.90;;;;;;4914546;29;19918;-86
2023/11/15 05:14:26;;;;;;;;;;;11.70;99.90;;;;;;4910107;29;20051;-85
2023/11/15 05:16:51;;;;;;;;;;;11.70;99.90;;;;;;4907497;29;19919;-85
2023/11/15 05:19:17;;;;;;;;;;;11.70;99.90;;;;;;4912853;29;20248;-85
2023/11/15 05:21:43;;;;;;;;;;;11.70;99.90;;;;;;4913573;29;19911;-84
2023/11/15 05:24:09;;;;;;;;;;;11.70;99.90;;;;;;4913280;29;19915;-84
2023/11/15 05:26:34;;;;;;;;;;;11.70;99.90;;;;;;4913234;29;20315;-84
2023/11/15 05:28:59;;;;;;;;;;;11.70;99.90;;;;;;4914445;29;19917;-83
2023/11/15 05:31:25;;;;;;;;;;;11.70;99.90;;;;;;4911670;29;19927;-84
2023/11/15 05:33:50;;;;;;;;;;;11.70;99.90;;;;;;4910588;29;19950;-84
2023/11/15 05:36:16;;;;;;;;;;;11.80;99.90;;;;;;4927127;29;19926;-84
2023/11/15 05:38:41;;;;;;;;;;;11.70;99.90;;;;;;4913774;29;20306;-84
2023/11/15 05:41:07;;;;;;;;;;;11.70;99.90;;;;;;4911706;29;19922;-84
2023/11/15 05:43:32;;;;;;;;;;;11.80;99.90;;;;;;4909403;29;19998;-84
2023/11/15 05:45:58;;;;;;;;;;;11.80;99.90;;;;;;4913454;29;19911;-84
2023/11/15 05:48:24;;;;;;;;;;;11.80;99.90;;;;;;4911734;29;20550;-84
2023/11/15 05:50:49;;;;;;;;;;;11.80;99.90;;;;;;4912763;29;19954;-84
2023/11/15 05:53:16;;;;;;;;;;;11.80;99.90;;;;;;4916486;29;20026;-84
2023/11/15 05:55:42;;;;;;;;;;;11.80;99.90;;;;;;4908956;29;19918;-85
2023/11/15 05:58:09;;;;;;;;;;;11.80;99.90;;;;;;4908818;29;20017;-84
2023/11/15 06:00:35;;;;;;;;;;;11.80;99.90;;;;;;4910440;29;19915;-84
2023/11/15 06:03:00;;;;;;;;;;;11.90;99.90;;;;;;4912849;29;19923;-84
2023/11/15 06:05:26;;;;;;;;;;;11.90;99.90;;;;;;4916184;29;19919;-84
2023/11/15 06:07:51;;;;;;;;;;;11.90;99.90;;;;;;4909261;29;19974;-84
2023/11/15 06:10:16;;;;;;;;;;;11.90;99.90;;;;;;4912028;29;19915;-84
2023/11/15 06:12:42;;;;;;;;;;;11.90;99.90;;;;;;4915046;29;19977;-84
2023/11/15 06:15:08;;;;;;;;;;;11.90;99.90;;;;;;4911457;29;19933;-84
2023/11/15 06:17:39;;;;;;;;;;;11.90;99.90;;;;;;4915633;29;19930;-84
2023/11/15 06:20:05;;;;;;;;;;;11.90;99.90;;;;;;4902113;29;20534;-84
2023/11/15 06:22:31;;;;;;;;;;;11.90;99.90;;;;;;4910789;29;19935;-84
2023/11/15 06:24:56;;;;;;;;;;;12.00;99.90;;;;;;4909398;29;20408;-84
2023/11/15 06:27:22;;;;;;;;;;;11.90;99.90;;;;;;4915224;29;20378;-84
2023/11/15 06:29:48;;;;;;;;;;;11.90;99.90;;;;;;4907770;29;20026;-83
2023/11/15 06:32:15;;;;;;;;;;;11.90;99.90;;;;;;4902364;29;20360;-83
2023/11/15 06:34:44;;;;;;;;;;;11.90;99.90;;;;;;4909414;29;20010;-84
2023/11/15 06:37:10;;;;;;;;;;;11.80;99.90;;;;;;4908920;29;20009;-84
2023/11/15 06:39:36;;;;;;;;;;;11.90;99.90;;;;;;4912835;29;19924;-84
2023/11/15 06:42:03;;;;;;;;;;;11.90;99.90;;;;;;4905659;29;19912;-84
2023/11/15 06:44:28;;;;;;;;;;;11.80;99.90;;;;;;4915096;29;19983;-85
2023/11/15 06:46:55;;;;;;;;;;;11.90;99.90;;;;;;4913460;29;20043;-86
2023/11/15 06:49:21;;;;;;;;;;;11.90;99.90;;;;;;4931049;29;19911;-87
2023/11/15 06:51:47;;;;;;;;;;;11.80;99.90;;;;;;4927372;29;19963;-87
2023/11/15 06:54:13;;;;;;;;;;;11.80;99.90;;;;;;4911080;29;19933;-86
2023/11/15 06:56:38;;;;;;;;;;;11.80;99.90;;;;;;4918111;29;20437;-86
2023/11/15 06:59:04;;;;;;;;;;;11.80;99.90;;;;;;4917394;29;19927;-86
2023/11/15 07:01:32;;;;;;;;;;;11.80;99.90;;;;;;4917262;29;20006;-85
2023/11/15 07:03:58;;;;;;;;;;;11.80;99.90;;;;;;4915049;29;19966;-85
2023/11/15 07:06:24;;;;;;;;;;;11.80;99.90;;;;;;4917422;29;19915;-85
2023/11/15 07:08:49;;;;;;;;;;;11.70;99.90;;;;;;4915935;29;20303;-87
2023/11/15 07:11:15;;;;;;;;;;;11.80;99.90;;;;;;4918788;29;19911;-87
2023/11/15 07:13:40;;;;;;;;;;;11.80;99.90;;;;;;4924372;29;19910;-87
2023/11/15 07:16:07;;;;;;;;;;;11.80;99.90;;;;;;4918103;29;19915;-86
2023/11/15 07:18:33;;;;;;;;;;;11.80;99.90;;;;;;4905801;29;19926;-88
2023/11/15 07:20:58;;;;;;;;;;;11.80;99.90;;;;;;4911192;29;19915;-87
2023/11/15 07:23:26;;;;;;;;;;;11.80;99.90;;;;;;4907341;29;19986;-88
2023/11/15 07:25:54;;;;;;;;;;;11.80;99.90;;;;;;4910003;29;19911;-92
2023/11/15 07:28:19;;;;;;;;;;;11.80;99.90;;;;;;4909043;29;19915;-88
2023/11/15 07:30:45;;;;;;;;;;;11.80;99.90;;;;;;4905581;29;20032;-88
2023/11/15 07:33:10;;;;;;;;;;;11.80;99.90;;;;;;4911132;29;20335;-88
2023/11/15 07:35:36;;;;;;;;;;;11.70;99.90;;;;;;4911537;29;19935;-88
2023/11/15 07:38:03;;;;;;;;;;;11.70;99.90;;;;;;4906036;29;19919;-88
2023/11/15 07:40:29;;;;;;;;;;;11.70;99.90;;;;;;4909222;29;19914;-88
2023/11/15 07:42:54;;;;;;;;;;;11.60;99.90;;;;;;4912255;29;19962;-89
2023/11/15 07:45:20;;;;;;;;;;;11.60;99.90;;;;;;4926747;29;20388;-88
2023/11/15 07:47:48;;;;;;;;;;;11.50;99.90;;;;;;4909785;29;19927;-85
2023/11/15 07:50:15;;;;;;;;;;;11.40;99.90;;;;;;4924998;29;19918;-89
2023/11/15 07:52:41;;;;;;;;;;;11.40;99.90;;;;;;4925380;29;19911;-90
2023/11/15 07:55:07;;;;;;;;;;;11.40;99.90;;;;;;4913653;29;19914;-89
2023/11/15 07:57:32;;;;;;;;;;;11.40;99.90;;;;;;4908745;29;19922;-90
2023/11/15 07:59:58;;;;;;;;;;;11.40;99.90;;;;;;4910622;29;20018;-90
2023/11/15 08:02:23;;;;;;;;;;;11.40;99.90;;;;;;4915995;29;19911;-90
2023/11/15 08:04:50;;;;;;;;;;;11.40;99.90;;;;;;4923726;29;19915;-90
2023/11/15 08:07:16;;;;;;;;;;;11.40;99.90;;;;;;4914530;29;19962;-90
2023/11/15 08:09:41;;;;;;;;;;;11.30;99.90;;;;;;4908938;29;20363;-90
2023/11/15 08:12:07;;;;;;;;;;;11.40;99.90;;;;;;4906723;29;20363;-91
2023/11/15 08:14:32;;;;;;;;;;;11.40;99.90;;;;;;4914899;29;20279;-90
2023/11/15 08:16:58;;;;;;;;;;;11.40;99.90;;;;;;4914375;29;20005;-90
2023/11/15 08:19:24;;;;;;;;;;;11.40;99.90;;;;;;4905418;29;19946;-90
2023/11/15 08:21:50;;;;;;;;;;;11.40;99.90;;;;;;4914515;29;19942;-90
2023/11/15 08:24:22;;;;;;;;;;;11.50;99.90;;;;;;4912607;29;19915;-90
2023/11/15 08:26:48;;;;;;;;;;;11.50;99.90;;;;;;4902826;29;19923;-90
2023/11/15 08:29:13;;;;;;;;;;;11.50;99.90;;;;;;4909234;29;19931;-90
2023/11/15 08:31:39;;;;;;;;;;;11.50;99.90;;;;;;4912779;29;19918;-90
2023/11/15 08:34:04;;;;;;;;;;;11.50;99.90;;;;;;4913397;29;19974;-89
2023/11/15 08:36:30;;;;;;;;;;;11.50;99.90;;;;;;4915633;29;19933;-90
2023/11/15 08:38:55;;;;;;;;;;;11.60;99.90;;;;;;4909571;29;19923;-90
2023/11/15 08:41:21;;;;;;;;;;;11.60;99.90;;;;;;4916080;29;19937;-89
2023/11/15 08:43:46;;;;;;;;;;;11.70;99.90;;;;;;4913704;29;19911;-90
2023/11/15 08:46:16;;;;;;;;;;;11.70;99.90;;;;;;4921215;29;19919;-90
2023/11/15 08:48:42;;;;;;;;;;;11.70;99.90;;;;;;4934720;29;19899;-90
2023/11/15 08:51:07;;;;;;;;;;;11.80;99.90;;;;;;4936662;29;19919;-91
2023/11/15 08:53:33;;;;;;;;;;;11.90;99.90;;;;;;4921027;29;19990;-90
2023/11/15 08:55:58;;;;;;;;;;;11.90;99.90;;;;;;4920045;29;19911;-90
2023/11/15 08:58:30;;;;;;;;;;;12.00;99.90;;;;;;4914793;29;19950;-90
2023/11/15 09:01:01;;;;;;;;;;;12.00;99.90;;;;;;4917777;29;19911;-90
2023/11/15 09:03:27;;;;;;;;;;;12.00;99.90;;;;;;4923186;29;19911;-89
2023/11/15 09:05:53;;;;;;;;;;;12.10;99.90;;;;;;4928363;29;19911;-90
2023/11/15 09:08:22;;;;;;;;;;;12.10;99.90;;;;;;4937885;29;19946;-90
2023/11/15 09:10:48;;;;;;;;;;;12.10;99.90;;;;;;4937354;29;19911;-90
2023/11/15 09:13:15;;;;;;;;;;;12.10;99.90;;;;;;4915525;29;19910;-93
2023/11/15 09:15:41;;;;;;;;;;;12.20;99.90;;;;;;4911205;29;19957;-90
2023/11/15 09:18:10;;;;;;;;;;;12.30;99.90;;;;;;4918553;29;20375;-90
2023/11/15 09:20:36;;;;;;;;;;;12.30;99.90;;;;;;4920477;29;19915;-91
2023/11/15 09:23:02;;;;;;;;;;;12.30;99.90;;;;;;4923665;29;19921;-92
2023/11/15 09:25:30;;;;;;;;;;;12.40;99.90;;;;;;4917598;29;20409;-92
2023/11/15 09:27:56;;;;;;;;;;;12.40;99.90;;;;;;4920809;29;20371;-92
2023/11/15 09:30:21;;;;;;;;;;;12.50;99.90;;;;;;4916250;29;19911;-92
2023/11/15 09:32:49;;;;;;;;;;;12.50;99.90;;;;;;4921276;29;20010;-92
2023/11/15 09:35:21;;;;;;;;;;;12.50;99.90;;;;;;4915907;29;19911;-92
2023/11/15 09:37:47;;;;;;;;;;;12.50;99.90;;;;;;4915382;29;19915;-92
2023/11/15 09:40:12;;;;;;;;;;;12.50;99.90;;;;;;4921779;29;19911;-93
2023/11/15 09:42:41;;;;;;;;;;;12.50;99.90;;;;;;4920252;29;19915;-93
2023/11/15 09:45:08;;;;;;;;;;;12.50;99.90;;;;;;4920799;29;19921;-93
2023/11/15 09:47:47;;;;;;;;;;;12.40;99.90;;;;;;4924330;28;19926;-93
2023/11/15 09:50:22;;;;;;;;;;;12.40;99.90;;;;;;4921061;29;20338;-92
2023/11/15 09:52:52;;;;;;;;;;;12.40;99.90;;;;;;4918986;29;20019;-92
2023/11/15 09:55:21;;;;;;;;;;;12.30;99.90;;;;;;4923193;29;19925;-93
2023/11/15 09:57:47;;;;;;;;;;;12.30;99.90;;;;;;4922195;29;19919;-94
2023/11/15 10:00:15;;;;;;;;;;;12.20;99.90;;;;;;4925058;29;19922;-90
2023/11/15 10:02:41;;;;;;;;;;;12.20;99.90;;;;;;4915982;29;19998;-92
2023/11/15 10:05:29;;;;;;;;;;;12.20;99.90;;;;;;4922714;29;20010;-93
2023/11/15 10:08:12;;;;;;;;;;;12.30;99.90;;;;;;4935548;29;19911;-93
2023/11/15 10:10:39;;;;;;;;;;;12.30;99.90;;;;;;4920366;29;19919;-91
2023/11/15 10:13:15;;;;;;;;;;;12.40;99.90;;;;;;4921119;29;19943;-92
2023/11/15 10:15:43;;;;;;;;;;;12.30;99.90;;;;;;4920380;29;19958;-93
2023/11/15 10:18:18;;;;;;;;;;;12.30;99.90;;;;;;4916724;29;19919;-93
2023/11/15 10:20:43;;;;;;;;;;;12.30;99.90;;;;;;4924457;29;19930;-92
2023/11/15 10:23:13;;;;;;;;;;;12.40;99.90;;;;;;4917473;29;20314;-91
2023/11/15 10:25:46;;;;;;;;;;;12.40;99.90;;;;;;4918049;29;20006;-91
2023/11/15 10:28:13;;;;;;;;;;;12.40;99.90;;;;;;4918431;29;19949;-92
2023/11/15 10:30:38;;;;;;;;;;;12.50;99.90;;;;;;4920976;29;19926;-92
2023/11/15 10:33:08;;;;;;;;;;;12.50;99.90;;;;;;4926232;29;19927;-91
2023/11/15 10:35:34;;;;;;;;;;;12.50;99.90;;;;;;4918840;29;19907;-90
2023/11/15 10:38:00;;;;;;;;;;;12.50;99.90;;;;;;4914376;29;20058;-91
2023/11/15 10:40:30;;;;;;;;;;;12.50;99.90;;;;;;4927997;29;19914;-91
2023/11/15 10:42:55;;;;;;;;;;;12.50;99.90;;;;;;4931329;29;19930;-91
2023/11/15 10:45:27;;;;;;;;;;;12.60;99.90;;;;;;4934130;28;19970;-92
2023/11/15 10:47:58;;;;;;;;;;;12.60;99.90;;;;;;4941709;29;19914;-93
2023/11/15 10:50:30;;;;;;;;;;;12.70;99.90;;;;;;4943847;29;19909;-93
2023/11/15 10:52:57;;;;;;;;;;;12.70;99.90;;;;;;4928898;29;20188;-92
2023/11/15 10:55:23;;;;;;;;;;;12.70;99.90;;;;;;4930536;29;20006;-93
2023/11/15 10:57:50;;;;;;;;;;;12.70;99.90;;;;;;4923814;29;19943;-93
2023/11/15 11:00:19;;;;;;;;;;;12.80;99.90;;;;;;4920183;29;19911;-93
2023/11/15 11:02:49;;;;;;;;;;;12.80;99.90;;;;;;4914927;29;19921;-92
2023/11/15 11:05:18;;;;;;;;;;;12.90;99.80;;;;;;4924671;29;19947;-92
2023/11/15 11:07:48;;;;;;;;;;;13.00;99.70;;;;;;4941247;28;19906;-93
2023/11/15 11:10:21;;;;;;;;;;;13.00;99.60;;;;;;4939016;28;19931;-92
2023/11/15 11:12:46;;;;;;;;;;;12.90;99.50;;;;;;4936055;29;20141;-92
2023/11/15 11:15:26;;;;;;;;;;;13.00;99.40;;;;;;4922582;29;20362;-92
2023/11/15 11:18:13;;;;;;;;;;;13.00;99.40;;;;;;4918692;29;20450;-93
2023/11/15 11:20:41;;;;;;;;;;;13.10;99.30;;;;;;4919563;29;19919;-92
2023/11/15 11:23:07;;;;;;;;;;;13.20;99.10;;;;;;4911518;29;19955;-92
2023/11/15 11:25:34;;;;;;;;;;;13.20;99.00;;;;;;4922136;29;20437;-92
2023/11/15 11:28:01;;;;;;;;;;;13.10;98.70;;;;;;4915182;29;19911;-92
2023/11/15 11:30:27;;;;;;;;;;;13.10;98.80;;;;;;4909632;29;21221;-92
2023/11/15 11:33:09;;;;;;;;;;;13.10;98.70;;;;;;4914450;29;19994;-93
2023/11/15 11:35:36;;;;;;;;;;;13.10;98.70;;;;;;4911901;29;19962;-92
2023/11/15 11:38:03;;;;;;;;;;;13.20;98.70;;;;;;4921836;29;20013;-91
2023/11/15 11:40:33;;;;;;;;;;;13.30;98.60;;;;;;4913940;29;20026;-92
2023/11/15 11:43:11;;;;;;;;;;;13.40;98.50;;;;;;4916073;29;19998;-93
2023/11/15 11:45:37;;;;;;;;;;;13.60;98.50;;;;;;4918083;29;20039;-92
2023/11/15 11:48:04;;;;;;;;;;;13.60;98.50;;;;;;4923311;29;19950;-92
2023/11/15 11:50:29;;;;;;;;;;;14.40;97.80;;;;;;4919390;29;19950;-92
2023/11/15 11:52:55;;;;;;;;;;;14.60;96.60;;;;;;4915503;29;19915;-92
2023/11/15 11:55:22;;;;;;;;;;;14.50;96.40;;;;;;4926743;29;20273;-92
2023/11/15 11:57:48;;;;;;;;;;;14.90;95.70;;;;;;4920958;29;19966;-93
2023/11/15 12:00:16;;;;;;;;;;;14.80;95.00;;;;;;4918434;29;19953;-93
2023/11/15 12:02:43;;;;;;;;;;;14.50;94.90;;;;;;4938269;29;19922;-92
2023/11/15 12:05:10;;;;;;;;;;;14.20;95.10;;;;;;4911907;29;19930;-91
2023/11/15 12:07:42;;;;;;;;;;;14.00;95.40;;;;;;4908453;29;19921;-92
2023/11/15 12:10:11;;;;;;;;;;;13.90;95.70;;;;;;4912244;29;19923;-93
2023/11/15 12:12:36;;;;;;;;;;;13.60;95.80;;;;;;4912077;29;19994;-93
2023/11/15 12:15:07;;;;;;;;;;;13.50;96.20;;;;;;4910740;29;20355;-92
2023/11/15 12:17:36;;;;;;;;;;;13.40;96.40;;;;;;4913156;29;20396;-92
2023/11/15 12:20:01;;;;;;;;;;;13.30;96.60;;;;;;4912955;29;19915;-92
2023/11/15 12:22:27;;;;;;;;;;;13.20;96.80;;;;;;4915146;29;19911;-93
2023/11/15 12:24:53;;;;;;;;;;;13.00;96.80;;;;;;4916226;29;20355;-93
2023/11/15 12:27:19;;;;;;;;;;;13.00;97.20;;;;;;4912007;29;19908;-93
2023/11/15 12:29:45;;;;;;;;;;;12.90;97.30;;;;;;4907073;29;19966;-93
2023/11/15 12:32:11;;;;;;;;;;;12.90;97.30;;;;;;4927665;29;20337;-93
2023/11/15 12:34:36;;;;;;;;;;;13.70;97.20;;;;;;4913172;29;19911;-93
2023/11/15 12:37:03;;;;;;;;;;;14.80;94.70;;;;;;4930219;29;19915;-93
2023/11/15 12:39:34;;;;;;;;;;;15.50;92.70;;;;;;4906382;29;19966;-93
2023/11/15 12:42:01;;;;;;;;;;;14.90;92.30;;;;;;4908631;29;19907;-93
2023/11/15 12:44:27;;;;;;;;;;;14.30;93.40;;;;;;4912697;29;20378;-93
2023/11/15 12:46:53;;;;;;;;;;;13.90;94.30;;;;;;4915716;29;19918;-93
2023/11/15 12:49:23;;;;;;;;;;;13.60;95.10;;;;;;4944686;28;19919;-93
2023/11/15 12:51:49;;;;;;;;;;;13.40;95.60;;;;;;4934143;29;19923;-92
2023/11/15 12:54:15;;;;;;;;;;;13.10;95.90;;;;;;4933270;28;19904;-93
2023/11/15 12:56:42;;;;;;;;;;;13.10;96.30;;;;;;4910728;28;19915;-93
2023/11/15 12:59:14;;;;;;;;;;;12.90;96.40;;;;;;4913987;29;20430;-93
2023/11/15 13:01:43;;;;;;;;;;;12.80;96.40;;;;;;4914264;29;19922;-93
2023/11/15 13:04:09;;;;;;;;;;;12.90;96.90;;;;;;4928207;29;19921;-92
2023/11/15 13:06:35;;;;;;;;;;;13.70;96.30;;;;;;4914044;29;19907;-92
2023/11/15 13:09:02;;;;;;;;;;;14.40;94.50;;;;;;4927311;28;19971;-92
2023/11/15 13:11:29;;;;;;;;;;;14.40;93.40;;;;;;4951890;28;19950;-93
2023/11/15 13:13:54;;;;;;;;;;;14.10;93.00;;;;;;4929359;29;19899;-93
2023/11/15 13:16:21;;;;;;;;;;;13.60;93.50;;;;;;4931143;28;19922;-93
2023/11/15 13:18:47;;;;;;;;;;;13.50;94.40;;;;;;4917791;28;19948;-92
2023/11/15 13:21:13;;;;;;;;;;;13.70;94.50;;;;;;4917615;29;20258;-93
2023/11/15 13:23:40;;;;;;;;;;;13.50;94.60;;;;;;4913959;29;20203;-93
2023/11/15 13:26:09;;;;;;;;;;;13.30;95.00;;;;;;4913816;29;20006;-93
2023/11/15 13:28:34;;;;;;;;;;;13.10;94.90;;;;;;4918438;29;19915;-93
2023/11/15 13:31:01;;;;;;;;;;;13.10;95.40;;;;;;4917755;29;19911;-93
2023/11/15 13:33:27;;;;;;;;;;;13.00;95.60;;;;;;4918101;29;19920;-93
2023/11/15 13:35:52;;;;;;;;;;;12.90;95.60;;;;;;4918026;29;19911;-93
2023/11/15 13:38:18;;;;;;;;;;;12.90;95.80;;;;;;4908693;29;19926;-93
2023/11/15 13:40:44;;;;;;;;;;;12.80;95.90;;;;;;4918277;29;19931;-92
2023/11/15 13:43:10;;;;;;;;;;;12.80;96.00;;;;;;4932767;29;19943;-93
2023/11/15 13:45:35;;;;;;;;;;;12.90;96.10;;;;;;4914415;29;19908;-93
2023/11/15 13:48:04;;;;;;;;;;;12.90;96.10;;;;;;4907403;29;19911;-93
2023/11/15 13:50:29;;;;;;;;;;;12.90;96.40;;;;;;4916455;29;19914;-93
2023/11/15 13:52:55;;;;;;;;;;;12.90;96.10;;;;;;4916481;29;19911;-93
2023/11/15 13:55:20;;;;;;;;;;;12.90;96.00;;;;;;4917747;29;19907;-93
2023/11/15 13:57:46;;;;;;;;;;;12.90;95.90;;;;;;4918007;29;19976;-93
2023/11/15 14:00:14;;;;;;;;;;;12.90;96.00;;;;;;4916756;29;20299;-93
2023/11/15 14:02:42;;;;;;;;;;;12.90;96.00;;;;;;4926130;29;19933;-93
2023/11/15 14:05:15;;;;;;;;;;;12.80;96.00;;;;;;4926852;29;19974;-93
2023/11/15 14:07:42;;;;;;;;;;;12.80;96.20;;;;;;4913230;29;19947;-92
2023/11/15 14:10:07;;;;;;;;;;;12.70;96.10;;;;;;4914087;29;19922;-93
2023/11/15 14:12:33;;;;;;;;;;;12.70;96.30;;;;;;4916798;29;20009;-94